sensor_id;sensor_type;location;lat;lon;timestamp;temperature;humidity
11991;DHT22;6055;52.522;13.446;2022-08-19T00:00:17;22.20;99.90
11991;DHT22;6055;52.522;13.446;2022-08-19T00:02:44;22.20;99.90
11991;DHT22;6055;52.522;13.446;2022-08-19T00:05:12;22.10;99.90
11991;DHT22;6055;52.522;13.446;2022-08-19T00:07:38;22.10;99.90
11991;DHT22;6055;52.522;13.446;2022-08-19T00:10:07;22.10;99.90
11991;DHT22;6055;52.522;13.446;2022-08-19T00:12:33;22.10;99.90
11991;DHT22;6055;52.522;13.446;2022-08-19T00:14:59;22.20;99.90
11991;DHT22;6055;52.522;13.446;2022-08-19T00:17:24;22.20;99.90
11991;DHT22;6055;52.522;13.446;2022-08-19T00:19:49;22.20;99.90
11991;DHT22;6055;52.522;13.446;2022-08-19T00:22:15;22.10;99.90
11991;DHT22;6055;52.522;13.446;2022-08-19T00:24:43;22.20;99.90
11991;DHT22;6055;52.522;13.446;2022-08-19T00:27:09;22.20;99.90
11991;DHT22;6055;52.522;13.446;2022-08-19T00:29:34;22.20;99.90
11991;DHT22;6055;52.522;13.446;2022-08-19T00:32:00;22.20;99.90
11991;DHT22;6055;52.522;13.446;2022-08-19T00:34:26;22.20;99.90
11991;DHT22;6055;52.522;13.446;2022-08-19T00:36:55;22.20;99.90
11991;DHT22;6055;52.522;13.446;2022-08-19T00:39:21;22.20;99.90
11991;DHT22;6055;52.522;13.446;2022-08-19T00:41:48;22.20;99.90
11991;DHT22;6055;52.522;13.446;2022-08-19T00:44:24;22.20;99.90
11991;DHT22;6055;52.522;13.446;2022-08-19T00:46:51;22.20;99.90
11991;DHT22;6055;52.522;13.446;2022-08-19T00:49:34;22.20;99.90
11991;DHT22;6055;52.522;13.446;2022-08-19T00:52:07;22.20;99.90
11991;DHT22;6055;52.522;13.446;2022-08-19T00:54:35;22.20;99.90
11991;DHT22;6055;52.522;13.446;2022-08-19T00:57:05;22.20;99.90
11991;DHT22;6055;52.522;13.446;2022-08-19T00:59:31;22.10;99.90
11991;DHT22;6055;52.522;13.446;2022-08-19T01:01:57;22.00;99.90
11991;DHT22;6055;52.522;13.446;2022-08-19T01:04:23;22.00;99.90
11991;DHT22;6055;52.522;13.446;2022-08-19T01:06:48;22.10;99.90
11991;DHT22;6055;52.522;13.446;2022-08-19T01:09:14;22.10;99.90
11991;DHT22;6055;52.522;13.446;2022-08-19T01:11:41;22.00;99.90
11991;DHT22;6055;52.522;13.446;2022-08-19T01:14:09;22.00;99.90
11991;DHT22;6055;52.522;13.446;2022-08-19T01:16:36;22.00;99.90
11991;DHT22;6055;52.522;13.446;2022-08-19T01:19:03;22.00;99.90
11991;DHT22;6055;52.522;13.446;2022-08-19T01:21:34;22.00;99.90
11991;DHT22;6055;52.522;13.446;2022-08-19T01:24:03;22.00;99.90
11991;DHT22;6055;52.522;13.446;2022-08-19T01:26:29;22.00;99.90
11991;DHT22;6055;52.522;13.446;2022-08-19T01:28:57;22.00;99.90
11991;DHT22;6055;52.522;13.446;2022-08-19T01:31:25;21.90;99.90
11991;DHT22;6055;52.522;13.446;2022-08-19T01:33:51;21.90;99.90
11991;DHT22;6055;52.522;13.446;2022-08-19T01:36:34;21.90;99.90
11991;DHT22;6055;52.522;13.446;2022-08-19T01:39:04;21.90;99.90
11991;DHT22;6055;52.522;13.446;2022-08-19T01:41:30;21.90;99.90
11991;DHT22;6055;52.522;13.446;2022-08-19T01:43:55;21.90;99.90
11991;DHT22;6055;52.522;13.446;2022-08-19T01:46:21;21.90;99.90
11991;DHT22;6055;52.522;13.446;2022-08-19T01:48:47;21.90;99.90
11991;DHT22;6055;52.522;13.446;2022-08-19T01:51:13;22.00;99.90
11991;DHT22;6055;52.522;13.446;2022-08-19T01:53:39;21.90;99.90
11991;DHT22;6055;52.522;13.446;2022-08-19T01:56:06;21.80;99.90
11991;DHT22;6055;52.522;13.446;2022-08-19T01:58:36;21.70;99.90
11991;DHT22;6055;52.522;13.446;2022-08-19T02:01:04;21.70;99.90
11991;DHT22;6055;52.522;13.446;2022-08-19T02:03:30;21.60;99.90
11991;DHT22;6055;52.522;13.446;2022-08-19T02:06:00;21.60;99.90
11991;DHT22;6055;52.522;13.446;2022-08-19T02:08:29;21.50;99.90
11991;DHT22;6055;52.522;13.446;2022-08-19T02:10:55;21.50;99.90
11991;DHT22;6055;52.522;13.446;2022-08-19T02:13:21;21.40;99.90
11991;DHT22;6055;52.522;13.446;2022-08-19T02:15:47;21.30;99.90
11991;DHT22;6055;52.522;13.446;2022-08-19T02:18:13;21.20;99.90
11991;DHT22;6055;52.522;13.446;2022-08-19T02:20:40;21.10;99.90
11991;DHT22;6055;52.522;13.446;2022-08-19T02:23:06;21.10;99.90
11991;DHT22;6055;52.522;13.446;2022-08-19T02:25:32;21.00;99.90
11991;DHT22;6055;52.522;13.446;2022-08-19T02:27:57;20.90;99.90
11991;DHT22;6055;52.522;13.446;2022-08-19T02:30:23;20.90;99.90
11991;DHT22;6055;52.522;13.446;2022-08-19T02:32:50;20.90;99.90
11991;DHT22;6055;52.522;13.446;2022-08-19T02:35:16;20.90;99.90
11991;DHT22;6055;52.522;13.446;2022-08-19T02:37:42;20.90;99.90
11991;DHT22;6055;52.522;13.446;2022-08-19T02:40:30;20.90;99.90
11991;DHT22;6055;52.522;13.446;2022-08-19T02:42:59;20.90;99.90
11991;DHT22;6055;52.522;13.446;2022-08-19T02:45:24;20.90;99.90
11991;DHT22;6055;52.522;13.446;2022-08-19T02:47:50;21.00;99.90
11991;DHT22;6055;52.522;13.446;2022-08-19T02:50:15;21.00;99.90
11991;DHT22;6055;52.522;13.446;2022-08-19T02:52:41;21.00;99.90
11991;DHT22;6055;52.522;13.446;2022-08-19T02:55:07;21.10;99.90
11991;DHT22;6055;52.522;13.446;2022-08-19T02:57:33;21.00;99.90
11991;DHT22;6055;52.522;13.446;2022-08-19T02:59:59;21.10;99.90
11991;DHT22;6055;52.522;13.446;2022-08-19T03:02:25;21.10;99.90
11991;DHT22;6055;52.522;13.446;2022-08-19T03:04:50;21.10;99.90
11991;DHT22;6055;52.522;13.446;2022-08-19T03:07:17;21.10;99.90
11991;DHT22;6055;52.522;13.446;2022-08-19T03:09:43;21.10;99.90
11991;DHT22;6055;52.522;13.446;2022-08-19T03:12:09;21.20;99.90
11991;DHT22;6055;52.522;13.446;2022-08-19T03:14:35;21.10;99.90
11991;DHT22;6055;52.522;13.446;2022-08-19T03:17:01;21.20;99.90
11991;DHT22;6055;52.522;13.446;2022-08-19T03:19:26;21.00;99.90
11991;DHT22;6055;52.522;13.446;2022-08-19T03:21:53;21.00;99.90
11991;DHT22;6055;52.522;13.446;2022-08-19T03:24:19;21.00;99.90
11991;DHT22;6055;52.522;13.446;2022-08-19T03:26:48;21.00;99.90
11991;DHT22;6055;52.522;13.446;2022-08-19T03:29:14;20.90;99.90
11991;DHT22;6055;52.522;13.446;2022-08-19T03:31:42;20.90;99.90
11991;DHT22;6055;52.522;13.446;2022-08-19T03:34:09;20.90;99.90
11991;DHT22;6055;52.522;13.446;2022-08-19T03:36:36;20.90;99.90
11991;DHT22;6055;52.522;13.446;2022-08-19T03:39:03;20.80;99.90
11991;DHT22;6055;52.522;13.446;2022-08-19T03:41:35;20.80;99.90
11991;DHT22;6055;52.522;13.446;2022-08-19T03:44:01;20.70;99.90
11991;DHT22;6055;52.522;13.446;2022-08-19T03:46:29;20.80;99.90
11991;DHT22;6055;52.522;13.446;2022-08-19T03:48:57;20.80;99.90
11991;DHT22;6055;52.522;13.446;2022-08-19T03:51:34;20.80;99.90
11991;DHT22;6055;52.522;13.446;2022-08-19T03:54:02;20.80;99.90
11991;DHT22;6055;52.522;13.446;2022-08-19T03:56:29;20.80;99.90
11991;DHT22;6055;52.522;13.446;2022-08-19T03:58:57;20.80;99.90
11991;DHT22;6055;52.522;13.446;2022-08-19T04:01:24;20.80;99.90
11991;DHT22;6055;52.522;13.446;2022-08-19T04:03:52;20.90;99.90
11991;DHT22;6055;52.522;13.446;2022-08-19T04:06:21;20.90;99.90
11991;DHT22;6055;52.522;13.446;2022-08-19T04:08:48;20.80;99.90
11991;DHT22;6055;52.522;13.446;2022-08-19T04:11:17;20.80;99.90
11991;DHT22;6055;52.522;13.446;2022-08-19T04:13:45;20.80;99.90
11991;DHT22;6055;52.522;13.446;2022-08-19T04:16:11;20.90;99.90
11991;DHT22;6055;52.522;13.446;2022-08-19T04:18:38;20.90;99.90
11991;DHT22;6055;52.522;13.446;2022-08-19T04:21:05;20.90;99.90
11991;DHT22;6055;52.522;13.446;2022-08-19T04:23:31;20.90;99.90
11991;DHT22;6055;52.522;13.446;2022-08-19T04:25:56;21.00;99.90
11991;DHT22;6055;52.522;13.446;2022-08-19T04:28:23;21.00;99.90
11991;DHT22;6055;52.522;13.446;2022-08-19T04:30:50;21.00;99.90
11991;DHT22;6055;52.522;13.446;2022-08-19T04:33:20;21.00;99.90
11991;DHT22;6055;52.522;13.446;2022-08-19T04:35:47;21.00;99.90
11991;DHT22;6055;52.522;13.446;2022-08-19T04:38:15;21.00;99.90
11991;DHT22;6055;52.522;13.446;2022-08-19T04:40:43;21.00;99.90
11991;DHT22;6055;52.522;13.446;2022-08-19T04:43:28;21.00;99.90
11991;DHT22;6055;52.522;13.446;2022-08-19T04:45:53;21.10;99.90
11991;DHT22;6055;52.522;13.446;2022-08-19T04:48:19;21.10;99.90
11991;DHT22;6055;52.522;13.446;2022-08-19T04:50:56;21.10;99.90
11991;DHT22;6055;52.522;13.446;2022-08-19T04:53:26;21.10;99.90
11991;DHT22;6055;52.522;13.446;2022-08-19T04:55:54;21.00;99.90
11991;DHT22;6055;52.522;13.446;2022-08-19T04:58:20;21.00;99.90
11991;DHT22;6055;52.522;13.446;2022-08-19T05:00:45;21.00;99.90
11991;DHT22;6055;52.522;13.446;2022-08-19T05:03:11;21.00;99.90
11991;DHT22;6055;52.522;13.446;2022-08-19T05:05:41;21.10;99.90
11991;DHT22;6055;52.522;13.446;2022-08-19T05:08:06;21.20;99.90
11991;DHT22;6055;52.522;13.446;2022-08-19T05:10:35;21.10;99.90
11991;DHT22;6055;52.522;13.446;2022-08-19T05:13:01;21.20;99.90
11991;DHT22;6055;52.522;13.446;2022-08-19T05:15:27;21.30;99.90
11991;DHT22;6055;52.522;13.446;2022-08-19T05:17:52;21.30;99.90
11991;DHT22;6055;52.522;13.446;2022-08-19T05:20:38;21.30;99.90
11991;DHT22;6055;52.522;13.446;2022-08-19T05:23:22;21.40;99.90
11991;DHT22;6055;52.522;13.446;2022-08-19T05:25:47;21.30;99.90
11991;DHT22;6055;52.522;13.446;2022-08-19T05:28:13;21.30;99.90
11991;DHT22;6055;52.522;13.446;2022-08-19T05:30:38;21.30;99.90
11991;DHT22;6055;52.522;13.446;2022-08-19T05:33:06;21.30;99.90
11991;DHT22;6055;52.522;13.446;2022-08-19T05:35:36;21.30;99.90
11991;DHT22;6055;52.522;13.446;2022-08-19T05:38:02;21.40;99.90
11991;DHT22;6055;52.522;13.446;2022-08-19T05:40:28;21.40;99.90
11991;DHT22;6055;52.522;13.446;2022-08-19T05:42:53;21.50;99.90
11991;DHT22;6055;52.522;13.446;2022-08-19T05:45:19;21.60;99.90
11991;DHT22;6055;52.522;13.446;2022-08-19T05:47:46;21.60;99.90
11991;DHT22;6055;52.522;13.446;2022-08-19T05:50:12;21.70;99.90
11991;DHT22;6055;52.522;13.446;2022-08-19T05:52:37;21.70;99.90
11991;DHT22;6055;52.522;13.446;2022-08-19T05:55:05;21.80;99.90
11991;DHT22;6055;52.522;13.446;2022-08-19T05:57:31;21.90;99.90
11991;DHT22;6055;52.522;13.446;2022-08-19T05:59:57;21.90;99.90
11991;DHT22;6055;52.522;13.446;2022-08-19T06:02:22;21.90;99.90
11991;DHT22;6055;52.522;13.446;2022-08-19T06:04:48;22.00;99.90
11991;DHT22;6055;52.522;13.446;2022-08-19T06:07:14;21.90;99.90
11991;DHT22;6055;52.522;13.446;2022-08-19T06:09:41;21.90;99.90
11991;DHT22;6055;52.522;13.446;2022-08-19T06:12:06;22.00;99.90
11991;DHT22;6055;52.522;13.446;2022-08-19T06:14:34;22.10;99.90
11991;DHT22;6055;52.522;13.446;2022-08-19T06:17:00;22.10;99.90
11991;DHT22;6055;52.522;13.446;2022-08-19T06:19:28;22.20;99.90
11991;DHT22;6055;52.522;13.446;2022-08-19T06:21:55;22.20;99.90
11991;DHT22;6055;52.522;13.446;2022-08-19T06:24:24;22.30;99.90
11991;DHT22;6055;52.522;13.446;2022-08-19T06:26:51;22.30;99.90
11991;DHT22;6055;52.522;13.446;2022-08-19T06:29:20;22.40;99.90
11991;DHT22;6055;52.522;13.446;2022-08-19T06:31:48;22.50;99.90
11991;DHT22;6055;52.522;13.446;2022-08-19T06:34:18;22.60;99.90
11991;DHT22;6055;52.522;13.446;2022-08-19T06:36:47;22.60;99.90
11991;DHT22;6055;52.522;13.446;2022-08-19T06:39:15;22.70;99.90
11991;DHT22;6055;52.522;13.446;2022-08-19T06:41:44;22.70;99.90
11991;DHT22;6055;52.522;13.446;2022-08-19T06:44:11;22.80;99.90
11991;DHT22;6055;52.522;13.446;2022-08-19T06:46:38;22.80;99.90
11991;DHT22;6055;52.522;13.446;2022-08-19T06:49:04;22.90;99.90
11991;DHT22;6055;52.522;13.446;2022-08-19T06:51:29;22.90;99.90
11991;DHT22;6055;52.522;13.446;2022-08-19T06:53:57;22.90;99.90
11991;DHT22;6055;52.522;13.446;2022-08-19T06:56:27;23.00;99.90
11991;DHT22;6055;52.522;13.446;2022-08-19T06:59:01;23.00;99.90
11991;DHT22;6055;52.522;13.446;2022-08-19T07:01:27;23.10;99.90
11991;DHT22;6055;52.522;13.446;2022-08-19T07:03:52;23.20;99.90
11991;DHT22;6055;52.522;13.446;2022-08-19T07:06:19;23.20;99.90
11991;DHT22;6055;52.522;13.446;2022-08-19T07:08:47;23.30;99.90
11991;DHT22;6055;52.522;13.446;2022-08-19T07:11:16;23.30;99.90
11991;DHT22;6055;52.522;13.446;2022-08-19T07:13:43;23.20;99.90
11991;DHT22;6055;52.522;13.446;2022-08-19T07:16:13;23.20;99.90
11991;DHT22;6055;52.522;13.446;2022-08-19T07:18:40;23.20;99.90
11991;DHT22;6055;52.522;13.446;2022-08-19T07:21:11;23.20;99.90
11991;DHT22;6055;52.522;13.446;2022-08-19T07:23:37;23.30;99.90
11991;DHT22;6055;52.522;13.446;2022-08-19T07:26:13;23.30;99.90
11991;DHT22;6055;52.522;13.446;2022-08-19T07:28:39;23.30;99.90
11991;DHT22;6055;52.522;13.446;2022-08-19T07:31:10;23.30;99.90
11991;DHT22;6055;52.522;13.446;2022-08-19T07:33:36;23.30;99.90
11991;DHT22;6055;52.522;13.446;2022-08-19T07:36:08;23.40;99.90
11991;DHT22;6055;52.522;13.446;2022-08-19T07:38:37;23.50;99.90
11991;DHT22;6055;52.522;13.446;2022-08-19T07:41:04;23.50;99.90
11991;DHT22;6055;52.522;13.446;2022-08-19T07:43:30;23.40;99.90
11991;DHT22;6055;52.522;13.446;2022-08-19T07:45:56;23.40;99.90
11991;DHT22;6055;52.522;13.446;2022-08-19T07:48:24;23.40;99.90
11991;DHT22;6055;52.522;13.446;2022-08-19T07:50:55;23.40;99.90
11991;DHT22;6055;52.522;13.446;2022-08-19T07:53:23;23.30;99.90
11991;DHT22;6055;52.522;13.446;2022-08-19T07:55:49;23.20;99.90
11991;DHT22;6055;52.522;13.446;2022-08-19T07:58:17;23.20;99.90
11991;DHT22;6055;52.522;13.446;2022-08-19T08:00:45;23.30;99.90
11991;DHT22;6055;52.522;13.446;2022-08-19T08:03:11;23.30;99.90
11991;DHT22;6055;52.522;13.446;2022-08-19T08:05:37;23.30;99.90
11991;DHT22;6055;52.522;13.446;2022-08-19T08:08:21;23.30;99.90
11991;DHT22;6055;52.522;13.446;2022-08-19T08:11:08;23.40;99.90
11991;DHT22;6055;52.522;13.446;2022-08-19T08:13:34;23.30;99.90
11991;DHT22;6055;52.522;13.446;2022-08-19T08:16:01;23.40;99.90
11991;DHT22;6055;52.522;13.446;2022-08-19T08:18:26;23.40;99.90
11991;DHT22;6055;52.522;13.446;2022-08-19T08:20:52;23.40;99.90
11991;DHT22;6055;52.522;13.446;2022-08-19T08:23:17;23.40;99.90
11991;DHT22;6055;52.522;13.446;2022-08-19T08:25:54;23.40;99.90
11991;DHT22;6055;52.522;13.446;2022-08-19T08:28:20;23.40;99.90
11991;DHT22;6055;52.522;13.446;2022-08-19T08:30:47;23.50;99.90
11991;DHT22;6055;52.522;13.446;2022-08-19T08:33:18;23.50;99.90
11991;DHT22;6055;52.522;13.446;2022-08-19T08:35:44;23.60;99.90
11991;DHT22;6055;52.522;13.446;2022-08-19T08:38:11;23.70;99.90
11991;DHT22;6055;52.522;13.446;2022-08-19T08:40:53;23.90;99.90
11991;DHT22;6055;52.522;13.446;2022-08-19T08:43:29;24.10;99.90
11991;DHT22;6055;52.522;13.446;2022-08-19T08:46:01;24.30;99.90
11991;DHT22;6055;52.522;13.446;2022-08-19T08:48:40;24.60;99.90
11991;DHT22;6055;52.522;13.446;2022-08-19T08:51:11;24.60;99.90
11991;DHT22;6055;52.522;13.446;2022-08-19T08:53:37;24.70;99.90
11991;DHT22;6055;52.522;13.446;2022-08-19T08:56:06;24.70;99.90
11991;DHT22;6055;52.522;13.446;2022-08-19T08:58:54;24.60;99.90
11991;DHT22;6055;52.522;13.446;2022-08-19T09:01:21;24.60;99.90
11991;DHT22;6055;52.522;13.446;2022-08-19T09:03:47;24.40;99.90
11991;DHT22;6055;52.522;13.446;2022-08-19T09:06:44;24.30;99.90
11991;DHT22;6055;52.522;13.446;2022-08-19T09:09:20;24.20;99.90
11991;DHT22;6055;52.522;13.446;2022-08-19T09:14:52;24.40;99.90
11991;DHT22;6055;52.522;13.446;2022-08-19T09:17:22;24.30;99.90
11991;DHT22;6055;52.522;13.446;2022-08-19T09:20:05;24.20;99.90
11991;DHT22;6055;52.522;13.446;2022-08-19T09:22:39;24.20;99.90
11991;DHT22;6055;52.522;13.446;2022-08-19T09:25:08;24.30;99.90
11991;DHT22;6055;52.522;13.446;2022-08-19T09:27:36;24.40;99.90
11991;DHT22;6055;52.522;13.446;2022-08-19T09:30:04;24.50;99.90
11991;DHT22;6055;52.522;13.446;2022-08-19T09:32:30;24.60;99.90
11991;DHT22;6055;52.522;13.446;2022-08-19T09:34:56;24.80;99.90
11991;DHT22;6055;52.522;13.446;2022-08-19T09:37:24;24.80;99.90
11991;DHT22;6055;52.522;13.446;2022-08-19T09:39:49;24.80;99.90
11991;DHT22;6055;52.522;13.446;2022-08-19T09:42:15;24.70;99.90
11991;DHT22;6055;52.522;13.446;2022-08-19T09:44:41;24.80;99.90
11991;DHT22;6055;52.522;13.446;2022-08-19T09:47:08;25.10;99.90
11991;DHT22;6055;52.522;13.446;2022-08-19T09:49:34;25.30;99.90
11991;DHT22;6055;52.522;13.446;2022-08-19T09:52:00;25.30;99.90
11991;DHT22;6055;52.522;13.446;2022-08-19T09:54:26;25.20;99.90
11991;DHT22;6055;52.522;13.446;2022-08-19T09:56:57;25.20;99.90
11991;DHT22;6055;52.522;13.446;2022-08-19T09:59:23;25.20;99.90
11991;DHT22;6055;52.522;13.446;2022-08-19T10:01:49;25.10;99.90
11991;DHT22;6055;52.522;13.446;2022-08-19T10:04:15;25.00;99.90
11991;DHT22;6055;52.522;13.446;2022-08-19T10:06:40;25.00;99.90
11991;DHT22;6055;52.522;13.446;2022-08-19T10:09:08;25.00;99.90
11991;DHT22;6055;52.522;13.446;2022-08-19T10:11:35;24.90;99.90
11991;DHT22;6055;52.522;13.446;2022-08-19T10:14:03;24.80;99.90
11991;DHT22;6055;52.522;13.446;2022-08-19T10:16:31;24.80;99.90
11991;DHT22;6055;52.522;13.446;2022-08-19T10:18:57;24.70;99.90
11991;DHT22;6055;52.522;13.446;2022-08-19T10:21:26;24.60;99.90
11991;DHT22;6055;52.522;13.446;2022-08-19T10:23:55;24.50;99.90
11991;DHT22;6055;52.522;13.446;2022-08-19T10:26:25;24.30;99.90
11991;DHT22;6055;52.522;13.446;2022-08-19T10:28:51;24.40;99.90
11991;DHT22;6055;52.522;13.446;2022-08-19T10:31:20;24.40;99.90
11991;DHT22;6055;52.522;13.446;2022-08-19T10:33:47;24.40;99.90
11991;DHT22;6055;52.522;13.446;2022-08-19T10:36:19;24.30;99.90
11991;DHT22;6055;52.522;13.446;2022-08-19T10:38:47;24.30;99.90
11991;DHT22;6055;52.522;13.446;2022-08-19T10:41:18;24.30;99.90
11991;DHT22;6055;52.522;13.446;2022-08-19T10:43:44;24.40;99.90
11991;DHT22;6055;52.522;13.446;2022-08-19T10:46:13;24.60;99.90
11991;DHT22;6055;52.522;13.446;2022-08-19T10:48:39;24.60;99.90
11991;DHT22;6055;52.522;13.446;2022-08-19T10:51:05;24.50;99.90
11991;DHT22;6055;52.522;13.446;2022-08-19T10:53:50;24.40;99.90
11991;DHT22;6055;52.522;13.446;2022-08-19T10:56:16;24.40;99.90
11991;DHT22;6055;52.522;13.446;2022-08-19T10:59:00;24.40;99.90
11991;DHT22;6055;52.522;13.446;2022-08-19T11:01:29;24.40;99.90
11991;DHT22;6055;52.522;13.446;2022-08-19T11:03:56;24.40;99.90
11991;DHT22;6055;52.522;13.446;2022-08-19T11:06:23;24.40;99.90
11991;DHT22;6055;52.522;13.446;2022-08-19T11:08:50;24.40;99.90
11991;DHT22;6055;52.522;13.446;2022-08-19T11:11:16;24.40;99.90
11991;DHT22;6055;52.522;13.446;2022-08-19T11:13:42;24.40;99.90
11991;DHT22;6055;52.522;13.446;2022-08-19T11:16:12;24.20;99.90
11991;DHT22;6055;52.522;13.446;2022-08-19T11:25:23;23.90;99.90
11991;DHT22;6055;52.522;13.446;2022-08-19T11:27:48;23.80;99.90
11991;DHT22;6055;52.522;13.446;2022-08-19T11:30:16;23.80;99.90
11991;DHT22;6055;52.522;13.446;2022-08-19T11:32:41;23.90;99.90
11991;DHT22;6055;52.522;13.446;2022-08-19T11:35:07;24.00;99.90
11991;DHT22;6055;52.522;13.446;2022-08-19T11:37:33;24.10;99.90
11991;DHT22;6055;52.522;13.446;2022-08-19T11:40:03;24.20;99.90
11991;DHT22;6055;52.522;13.446;2022-08-19T11:42:28;24.20;99.90
11991;DHT22;6055;52.522;13.446;2022-08-19T11:45:13;24.30;99.90
11991;DHT22;6055;52.522;13.446;2022-08-19T11:47:39;24.20;99.90
11991;DHT22;6055;52.522;13.446;2022-08-19T11:50:05;24.20;99.90
11991;DHT22;6055;52.522;13.446;2022-08-19T11:52:31;24.10;99.90
11991;DHT22;6055;52.522;13.446;2022-08-19T11:54:56;24.00;99.90
11991;DHT22;6055;52.522;13.446;2022-08-19T11:57:22;24.00;99.90
11991;DHT22;6055;52.522;13.446;2022-08-19T11:59:50;24.00;99.90
11991;DHT22;6055;52.522;13.446;2022-08-19T12:02:15;24.10;99.90
11991;DHT22;6055;52.522;13.446;2022-08-19T12:04:41;24.10;99.90
11991;DHT22;6055;52.522;13.446;2022-08-19T12:07:06;24.00;99.90
11991;DHT22;6055;52.522;13.446;2022-08-19T12:09:32;24.00;99.90
11991;DHT22;6055;52.522;13.446;2022-08-19T12:12:00;24.00;99.90
11991;DHT22;6055;52.522;13.446;2022-08-19T12:14:27;24.10;99.90
11991;DHT22;6055;52.522;13.446;2022-08-19T12:16:55;24.20;99.90
11991;DHT22;6055;52.522;13.446;2022-08-19T12:19:20;24.40;99.90
11991;DHT22;6055;52.522;13.446;2022-08-19T12:21:46;24.60;99.90
11991;DHT22;6055;52.522;13.446;2022-08-19T12:24:11;24.70;99.90
11991;DHT22;6055;52.522;13.446;2022-08-19T12:26:38;24.90;99.90
11991;DHT22;6055;52.522;13.446;2022-08-19T12:29:03;25.00;99.90
11991;DHT22;6055;52.522;13.446;2022-08-19T12:31:29;24.90;99.90
11991;DHT22;6055;52.522;13.446;2022-08-19T12:33:55;24.90;99.90
11991;DHT22;6055;52.522;13.446;2022-08-19T12:36:21;24.80;99.90
11991;DHT22;6055;52.522;13.446;2022-08-19T12:38:48;24.80;99.90
11991;DHT22;6055;52.522;13.446;2022-08-19T12:41:15;24.80;99.90
11991;DHT22;6055;52.522;13.446;2022-08-19T12:43:43;24.90;99.90
11991;DHT22;6055;52.522;13.446;2022-08-19T12:46:09;25.00;99.90
11991;DHT22;6055;52.522;13.446;2022-08-19T12:48:35;24.90;99.90
11991;DHT22;6055;52.522;13.446;2022-08-19T12:51:05;24.80;99.90
11991;DHT22;6055;52.522;13.446;2022-08-19T12:53:31;24.80;99.90
11991;DHT22;6055;52.522;13.446;2022-08-19T12:55:57;24.70;99.90
11991;DHT22;6055;52.522;13.446;2022-08-19T12:58:23;24.80;99.90
11991;DHT22;6055;52.522;13.446;2022-08-19T13:00:48;25.20;99.90
11991;DHT22;6055;52.522;13.446;2022-08-19T13:03:14;25.40;99.90
11991;DHT22;6055;52.522;13.446;2022-08-19T13:05:41;25.50;99.90
11991;DHT22;6055;52.522;13.446;2022-08-19T13:08:07;25.60;99.90
11991;DHT22;6055;52.522;13.446;2022-08-19T13:10:34;25.50;99.90
11991;DHT22;6055;52.522;13.446;2022-08-19T13:13:02;25.40;99.90
11991;DHT22;6055;52.522;13.446;2022-08-19T13:15:28;25.50;99.90
11991;DHT22;6055;52.522;13.446;2022-08-19T13:17:57;25.40;99.90
11991;DHT22;6055;52.522;13.446;2022-08-19T13:20:23;25.40;99.90
11991;DHT22;6055;52.522;13.446;2022-08-19T13:22:49;25.40;99.90
11991;DHT22;6055;52.522;13.446;2022-08-19T13:25:16;25.60;99.90
11991;DHT22;6055;52.522;13.446;2022-08-19T13:27:44;25.80;99.90
11991;DHT22;6055;52.522;13.446;2022-08-19T13:30:11;25.90;99.90
11991;DHT22;6055;52.522;13.446;2022-08-19T13:32:55;26.00;99.90
11991;DHT22;6055;52.522;13.446;2022-08-19T13:35:42;25.90;99.90
11991;DHT22;6055;52.522;13.446;2022-08-19T13:38:08;26.10;99.90
11991;DHT22;6055;52.522;13.446;2022-08-19T13:40:35;26.10;99.90
11991;DHT22;6055;52.522;13.446;2022-08-19T13:43:03;26.20;99.90
11991;DHT22;6055;52.522;13.446;2022-08-19T13:45:31;26.10;99.90
11991;DHT22;6055;52.522;13.446;2022-08-19T13:47:58;26.10;99.90
11991;DHT22;6055;52.522;13.446;2022-08-19T13:50:27;26.10;99.90
11991;DHT22;6055;52.522;13.446;2022-08-19T13:52:54;25.90;99.90
11991;DHT22;6055;52.522;13.446;2022-08-19T13:55:20;25.80;99.90
11991;DHT22;6055;52.522;13.446;2022-08-19T13:57:45;25.60;99.90
11991;DHT22;6055;52.522;13.446;2022-08-19T14:00:14;25.40;99.90
11991;DHT22;6055;52.522;13.446;2022-08-19T14:02:42;25.40;99.90
11991;DHT22;6055;52.522;13.446;2022-08-19T14:05:12;25.10;99.90
11991;DHT22;6055;52.522;13.446;2022-08-19T14:07:38;25.00;99.90
11991;DHT22;6055;52.522;13.446;2022-08-19T14:10:05;24.90;99.90
11991;DHT22;6055;52.522;13.446;2022-08-19T14:12:31;24.90;99.90
11991;DHT22;6055;52.522;13.446;2022-08-19T14:14:58;25.00;99.90
11991;DHT22;6055;52.522;13.446;2022-08-19T14:17:23;25.00;99.90
11991;DHT22;6055;52.522;13.446;2022-08-19T14:19:55;24.90;99.90
11991;DHT22;6055;52.522;13.446;2022-08-19T14:22:21;24.90;99.90
11991;DHT22;6055;52.522;13.446;2022-08-19T14:24:46;24.90;99.90
11991;DHT22;6055;52.522;13.446;2022-08-19T14:27:13;25.00;99.90
11991;DHT22;6055;52.522;13.446;2022-08-19T14:29:39;24.90;99.90
11991;DHT22;6055;52.522;13.446;2022-08-19T14:32:05;25.00;99.90
11991;DHT22;6055;52.522;13.446;2022-08-19T14:34:30;25.00;99.90
11991;DHT22;6055;52.522;13.446;2022-08-19T14:36:57;25.10;99.90
11991;DHT22;6055;52.522;13.446;2022-08-19T14:39:22;25.10;99.90
11991;DHT22;6055;52.522;13.446;2022-08-19T14:41:48;25.10;99.90
11991;DHT22;6055;52.522;13.446;2022-08-19T14:44:14;25.10;99.90
11991;DHT22;6055;52.522;13.446;2022-08-19T14:46:39;24.90;99.90
11991;DHT22;6055;52.522;13.446;2022-08-19T14:49:05;24.90;99.90
11991;DHT22;6055;52.522;13.446;2022-08-19T14:51:31;24.80;99.90
11991;DHT22;6055;52.522;13.446;2022-08-19T14:53:57;24.80;99.90
11991;DHT22;6055;52.522;13.446;2022-08-19T14:56:26;24.70;99.90
11991;DHT22;6055;52.522;13.446;2022-08-19T14:58:53;24.60;99.90
11991;DHT22;6055;52.522;13.446;2022-08-19T15:01:21;24.60;99.90
11991;DHT22;6055;52.522;13.446;2022-08-19T15:03:48;24.50;99.90
11991;DHT22;6055;52.522;13.446;2022-08-19T15:06:13;24.50;99.90
11991;DHT22;6055;52.522;13.446;2022-08-19T15:08:41;24.60;99.90
11991;DHT22;6055;52.522;13.446;2022-08-19T15:11:12;24.70;99.90
11991;DHT22;6055;52.522;13.446;2022-08-19T15:13:40;24.60;99.90
11991;DHT22;6055;52.522;13.446;2022-08-19T15:16:06;24.60;99.90
11991;DHT22;6055;52.522;13.446;2022-08-19T15:18:32;24.50;99.90
11991;DHT22;6055;52.522;13.446;2022-08-19T15:20:58;24.50;99.90
11991;DHT22;6055;52.522;13.446;2022-08-19T15:23:24;24.50;99.90
11991;DHT22;6055;52.522;13.446;2022-08-19T15:25:50;24.40;99.90
11991;DHT22;6055;52.522;13.446;2022-08-19T15:28:23;24.40;99.90
11991;DHT22;6055;52.522;13.446;2022-08-19T15:30:50;24.40;99.90
11991;DHT22;6055;52.522;13.446;2022-08-19T15:33:16;24.20;99.90
11991;DHT22;6055;52.522;13.446;2022-08-19T15:35:43;24.20;99.90
11991;DHT22;6055;52.522;13.446;2022-08-19T15:38:10;24.10;99.90
11991;DHT22;6055;52.522;13.446;2022-08-19T15:40:39;24.10;99.90
11991;DHT22;6055;52.522;13.446;2022-08-19T15:43:05;24.00;99.90